Time;durP1;ratioP1;P1;durP2;ratioP2;P2;SDS_P1;SDS_P2;PMS_P1;PMS_P2;Temp;Humidity;BMP_temperature;BMP_pressure;BME280_temperature;BME280_humidity;BME280_pressure;Samples;Min_cycle;Max_cycle;Signal;HPM_P1;HPM_P2
2022/02/25 00:02:21;;;;;;;8.43;5.45;;;9.70;91.20;;;;;;4975190;28;20442;-60
2022/02/25 00:04:50;;;;;;;10.63;7.25;;;9.70;91.20;;;;;;4975557;28;20523;-59
2022/02/25 00:07:18;;;;;;;10.55;7.20;;;9.70;91.20;;;;;;4974896;28;20034;-59
2022/02/25 00:09:46;;;;;;;12.25;6.68;;;9.60;91.00;;;;;;4958478;28;20087;-60
2022/02/25 00:12:14;;;;;;;10.25;6.63;;;9.60;91.10;;;;;;4972827;28;20047;-59
2022/02/25 00:14:43;;;;;;;11.30;8.00;;;9.60;91.00;;;;;;4957542;28;20129;-59
2022/02/25 00:17:11;;;;;;;14.15;8.32;;;9.60;91.10;;;;;;4972129;28;20093;-59
2022/02/25 00:19:39;;;;;;;18.75;9.85;;;9.60;91.20;;;;;;4972431;28;20039;-60
2022/02/25 00:22:06;;;;;;;14.82;8.63;;;9.50;91.20;;;;;;4974023;28;20053;-59
2022/02/25 00:24:34;;;;;;;17.52;9.38;;;9.50;91.30;;;;;;4974441;28;20050;-61
2022/02/25 00:27:02;;;;;;;12.73;8.88;;;9.40;91.20;;;;;;4989287;28;20446;-59
2022/02/25 00:29:30;;;;;;;10.60;7.43;;;9.40;91.20;;;;;;4959086;28;20122;-59
2022/02/25 00:31:58;;;;;;;13.68;7.97;;;9.40;91.30;;;;;;4965994;28;20034;-59
2022/02/25 00:34:25;;;;;;;12.75;7.32;;;9.40;91.30;;;;;;4974469;28;20050;-59
2022/02/25 00:36:53;;;;;;;12.02;8.10;;;9.30;91.20;;;;;;4957729;28;20065;-60
2022/02/25 00:39:21;;;;;;;11.25;8.13;;;9.30;91.30;;;;;;4970311;28;20118;-59
2022/02/25 00:41:50;;;;;;;14.70;8.32;;;9.30;91.40;;;;;;4973807;28;20062;-60
2022/02/25 00:44:18;;;;;;;10.13;6.55;;;9.30;91.40;;;;;;4963740;28;20035;-59
2022/02/25 00:46:45;;;;;;;10.00;6.07;;;9.30;91.50;;;;;;4975818;28;20041;-61
2022/02/25 00:49:12;;;;;;;9.48;6.40;;;9.30;91.60;;;;;;4974186;28;20066;-59
2022/02/25 00:51:40;;;;;;;9.80;6.00;;;9.30;91.80;;;;;;4974317;28;20407;-59
2022/02/25 00:54:08;;;;;;;9.05;5.13;;;9.30;91.90;;;;;;4973396;28;20049;-59
2022/02/25 00:56:37;;;;;;;7.05;4.50;;;9.30;92.00;;;;;;4962480;28;20118;-59
2022/02/25 00:59:04;;;;;;;9.07;5.70;;;9.30;92.10;;;;;;4969707;28;20090;-60
2022/02/25 01:01:32;;;;;;;5.95;4.25;;;9.30;92.10;;;;;;4963330;28;20498;-59
2022/02/25 01:03:59;;;;;;;9.43;4.55;;;9.30;92.20;;;;;;4972371;28;20101;-59
2022/02/25 01:06:27;;;;;;;5.25;3.97;;;9.30;92.20;;;;;;4974932;28;20058;-59
2022/02/25 01:08:57;;;;;;;7.18;4.07;;;9.30;92.30;;;;;;4974858;28;20055;-59
2022/02/25 01:11:25;;;;;;;6.50;3.47;;;9.40;92.20;;;;;;4973440;28;20035;-59
2022/02/25 01:13:55;;;;;;;5.57;3.63;;;9.40;92.30;;;;;;4969829;28;20482;-59
2022/02/25 01:16:23;;;;;;;6.15;3.63;;;9.40;92.40;;;;;;4956970;28;20109;-59
2022/02/25 01:18:51;;;;;;;6.90;3.53;;;9.40;92.30;;;;;;4973661;28;20467;-59
2022/02/25 01:21:18;;;;;;;5.88;3.20;;;9.40;92.40;;;;;;4974838;28;20043;-61
2022/02/25 01:23:46;;;;;;;5.88;3.30;;;9.40;92.40;;;;;;4972687;28;20220;-59
2022/02/25 01:26:13;;;;;;;5.60;3.20;;;9.50;92.50;;;;;;4973261;28;20050;-60
2022/02/25 01:28:41;;;;;;;7.65;3.70;;;9.50;92.40;;;;;;4973610;28;20043;-59
2022/02/25 01:31:08;;;;;;;5.00;2.95;;;9.50;92.40;;;;;;4949633;28;20047;-60
2022/02/25 01:33:36;;;;;;;6.35;3.42;;;9.50;92.40;;;;;;4973864;28;20031;-59
2022/02/25 01:36:04;;;;;;;6.38;3.05;;;9.50;92.40;;;;;;4974877;28;20510;-59
2022/02/25 01:38:31;;;;;;;6.25;3.70;;;9.50;92.40;;;;;;4970398;28;20062;-60
2022/02/25 01:41:00;;;;;;;6.68;4.07;;;9.60;92.40;;;;;;4973206;28;20047;-59
2022/02/25 01:43:28;;;;;;;10.90;4.07;;;9.50;92.30;;;;;;4974187;28;20047;-61
2022/02/25 01:45:58;;;;;;;6.40;3.28;;;9.60;92.40;;;;;;4973740;28;20457;-59
2022/02/25 01:48:26;;;;;;;7.97;4.22;;;9.50;92.40;;;;;;4972679;28;20074;-59
2022/02/25 01:50:53;;;;;;;5.28;3.47;;;9.50;92.40;;;;;;4974037;28;20051;-59
2022/02/25 01:53:22;;;;;;;5.70;3.40;;;9.50;92.40;;;;;;4973627;28;20051;-59
2022/02/25 01:55:50;;;;;;;4.97;3.58;;;9.50;92.40;;;;;;4972836;28;20047;-59
2022/02/25 01:58:17;;;;;;;5.72;3.50;;;9.50;92.50;;;;;;4972647;28;20453;-60
2022/02/25 02:00:47;;;;;;;5.60;3.35;;;9.50;92.50;;;;;;4972496;28;20066;-59
2022/02/25 02:03:15;;;;;;;5.90;3.35;;;9.50;92.50;;;;;;4974669;28;20497;-59
2022/02/25 02:05:43;;;;;;;4.85;2.90;;;9.50;92.40;;;;;;4973220;28;20540;-59
2022/02/25 02:08:11;;;;;;;5.40;4.00;;;9.50;92.50;;;;;;4970234;28;20051;-60
2022/02/25 02:10:39;;;;;;;5.38;3.35;;;9.50;92.50;;;;;;4955780;28;20417;-59
2022/02/25 02:13:07;;;;;;;6.57;4.03;;;9.50;92.50;;;;;;4972862;28;20054;-59
2022/02/25 02:15:35;;;;;;;6.25;3.45;;;9.50;92.60;;;;;;4972693;28;20059;-59
2022/02/25 02:18:02;;;;;;;3.88;2.78;;;9.50;92.60;;;;;;4973033;28;20097;-59
2022/02/25 02:20:30;;;;;;;7.43;3.70;;;9.50;92.60;;;;;;4970943;28;20138;-60
2022/02/25 02:22:57;;;;;;;7.22;3.35;;;9.50;92.70;;;;;;4973789;28;20567;-59
2022/02/25 02:25:25;;;;;;;6.97;3.60;;;9.50;92.70;;;;;;4971652;28;20058;-59
2022/02/25 02:30:39;;;;;;;5.90;3.22;;;9.60;92.90;;;;;;4960891;28;20402;-59
2022/02/25 02:33:06;;;;;;;4.95;2.88;;;9.50;92.90;;;;;;4973363;28;20057;-59
2022/02/25 02:35:34;;;;;;;5.15;3.15;;;9.60;93.00;;;;;;4972543;28;20461;-62
2022/02/25 02:38:03;;;;;;;5.45;3.17;;;9.50;93.10;;;;;;4972388;28;20441;-59
2022/02/25 02:40:30;;;;;;;5.18;3.53;;;9.50;93.10;;;;;;4969082;28;20513;-59
2022/02/25 02:43:00;;;;;;;6.78;3.53;;;9.50;93.00;;;;;;4962103;28;20133;-59
2022/02/25 02:45:30;;;;;;;7.72;3.78;;;9.50;93.10;;;;;;4972505;28;20519;-59
2022/02/25 02:47:58;;;;;;;6.38;3.53;;;9.50;93.10;;;;;;4972597;28;20386;-59
2022/02/25 02:50:25;;;;;;;4.55;3.30;;;9.50;93.20;;;;;;4972674;28;20050;-60
2022/02/25 02:52:53;;;;;;;3.45;2.90;;;9.50;93.20;;;;;;4972599;28;20489;-59
2022/02/25 02:55:20;;;;;;;4.45;3.65;;;9.50;93.40;;;;;;4969027;28;20524;-60
2022/02/25 02:57:49;;;;;;;5.00;3.30;;;9.50;93.10;;;;;;4971701;28;20047;-59
2022/02/25 03:00:17;;;;;;;4.85;3.17;;;9.50;93.10;;;;;;4971384;28;20441;-60
2022/02/25 03:02:45;;;;;;;6.13;3.22;;;9.50;93.00;;;;;;4973537;28;20053;-59
2022/02/25 03:05:13;;;;;;;4.97;3.78;;;9.50;93.10;;;;;;4971514;28;20061;-59
2022/02/25 03:07:40;;;;;;;4.85;3.47;;;9.50;93.00;;;;;;4971839;28;20035;-59
2022/02/25 03:10:10;;;;;;;9.20;3.40;;;9.40;93.00;;;;;;4968436;28;20102;-60
2022/02/25 03:12:39;;;;;;;4.80;3.85;;;9.50;93.10;;;;;;4962862;28;20054;-59
2022/02/25 03:15:11;;;;;;;5.40;3.67;;;9.50;93.10;;;;;;4971383;28;20417;-59
2022/02/25 03:17:38;;;;;;;6.72;3.72;;;9.50;93.10;;;;;;4972353;28;20074;-59
2022/02/25 03:20:08;;;;;;;4.22;3.08;;;9.50;93.20;;;;;;4971608;28;20522;-60
2022/02/25 03:22:36;;;;;;;4.72;3.35;;;9.50;93.20;;;;;;4979462;28;20117;-59
2022/02/25 03:25:06;;;;;;;4.82;2.60;;;9.50;93.20;;;;;;4977601;28;20043;-59
2022/02/25 03:27:33;;;;;;;5.32;2.55;;;9.50;93.10;;;;;;4976968;28;20133;-60
2022/02/25 03:30:02;;;;;;;5.68;2.95;;;9.60;93.20;;;;;;4978534;28;20053;-59
2022/02/25 03:32:30;;;;;;;9.38;3.53;;;9.60;93.20;;;;;;4978374;28;20053;-59
2022/02/25 03:34:57;;;;;;;6.05;3.15;;;9.60;93.20;;;;;;4977525;28;20046;-59
2022/02/25 03:37:27;;;;;;;5.57;2.97;;;9.60;93.20;;;;;;4977959;28;20049;-59
2022/02/25 03:39:55;;;;;;;5.32;3.08;;;9.50;93.20;;;;;;4978643;28;20049;-59
2022/02/25 03:42:23;;;;;;;6.82;3.28;;;9.50;93.20;;;;;;4946371;28;20094;-60
2022/02/25 03:44:51;;;;;;;4.72;3.47;;;9.50;93.20;;;;;;4977624;28;20050;-59
2022/02/25 03:47:18;;;;;;;9.02;4.20;;;9.50;93.30;;;;;;4978174;28;20049;-58
2022/02/25 03:49:46;;;;;;;5.85;2.90;;;9.50;93.40;;;;;;4979190;28;20038;-60
2022/02/25 03:52:14;;;;;;;7.20;3.25;;;9.50;93.30;;;;;;4978592;28;20390;-59
2022/02/25 03:54:41;;;;;;;7.65;3.67;;;9.50;93.40;;;;;;4978044;28;20446;-59
2022/02/25 03:57:09;;;;;;;4.28;2.20;;;9.50;93.40;;;;;;4980557;28;20043;-59
2022/02/25 03:59:36;;;;;;;4.78;2.97;;;9.40;93.40;;;;;;4980825;28;20062;-59
2022/02/25 04:02:04;;;;;;;4.13;2.40;;;9.50;93.70;;;;;;4981144;28;20043;-59
2022/02/25 04:04:32;;;;;;;5.18;2.47;;;9.50;93.50;;;;;;4963830;28;20043;-59
2022/02/25 04:07:00;;;;;;;3.40;2.40;;;9.50;93.50;;;;;;4979653;28;20042;-59
2022/02/25 04:09:27;;;;;;;5.97;3.35;;;9.40;93.50;;;;;;4963843;28;20058;-59
2022/02/25 04:11:55;;;;;;;5.93;2.78;;;9.50;93.50;;;;;;4980828;28;20489;-59
2022/02/25 04:14:23;;;;;;;5.22;3.47;;;9.40;93.40;;;;;;4980556;28;20047;-59
2022/02/25 04:16:52;;;;;;;4.88;3.17;;;9.40;93.40;;;;;;4979643;28;20130;-59
2022/02/25 04:19:20;;;;;;;4.35;2.47;;;9.40;93.40;;;;;;4979667;28;20053;-59
2022/02/25 04:21:48;;;;;;;4.28;2.60;;;9.30;93.40;;;;;;4979546;28;20043;-59
2022/02/25 04:24:16;;;;;;;4.03;2.85;;;9.30;93.40;;;;;;4979726;28;20061;-58
2022/02/25 04:26:45;;;;;;;4.57;2.65;;;9.30;93.50;;;;;;4980848;28;20067;-59
2022/02/25 04:29:12;;;;;;;3.90;2.80;;;9.30;93.40;;;;;;4979609;28;20051;-58
2022/02/25 04:31:40;;;;;;;3.80;2.75;;;9.20;93.50;;;;;;4978979;28;20535;-59
2022/02/25 04:34:08;;;;;;;5.18;3.53;;;9.10;93.40;;;;;;4975896;28;20055;-58
2022/02/25 04:36:38;;;;;;;5.60;3.47;;;9.10;93.50;;;;;;4976146;28;20506;-59
2022/02/25 04:39:07;;;;;;;4.75;3.25;;;9.10;93.60;;;;;;4976338;28;20560;-58
2022/02/25 04:41:35;;;;;;;5.75;3.13;;;9.00;93.60;;;;;;4977479;28;20441;-58
2022/02/25 04:44:05;;;;;;;12.50;3.30;;;9.00;93.70;;;;;;4976413;28;20050;-58
2022/02/25 04:46:33;;;;;;;4.88;3.22;;;9.00;93.70;;;;;;4976297;28;20074;-59
2022/02/25 04:49:01;;;;;;;6.00;3.40;;;8.90;93.80;;;;;;4975886;28;20047;-59
2022/02/25 04:51:28;;;;;;;5.82;3.35;;;8.90;93.90;;;;;;4977184;28;20460;-59
2022/02/25 04:53:56;;;;;;;4.93;2.92;;;8.90;93.90;;;;;;4976041;28;20054;-59
2022/02/25 04:56:23;;;;;;;5.82;3.67;;;8.90;93.80;;;;;;4977205;28;20039;-59
2022/02/25 04:58:52;;;;;;;5.95;3.47;;;8.90;93.90;;;;;;4977330;28;20051;-58
2022/02/25 05:01:22;;;;;;;6.72;4.03;;;8.90;93.90;;;;;;4976023;28;20049;-59
2022/02/25 05:03:52;;;;;;;5.20;3.15;;;8.90;94.00;;;;;;4944525;28;20102;-57
2022/02/25 05:06:23;;;;;;;6.38;3.75;;;8.90;94.00;;;;;;4960647;28;20054;-59
2022/02/25 05:08:54;;;;;;;5.43;3.25;;;8.90;93.90;;;;;;4975839;28;20584;-59
2022/02/25 05:11:21;;;;;;;7.28;3.38;;;8.90;94.00;;;;;;4975810;28;20113;-58
2022/02/25 05:13:49;;;;;;;5.88;2.90;;;8.90;93.90;;;;;;4975594;28;20062;-59
2022/02/25 05:21:53;;;;;;;6.50;3.80;;;8.90;93.70;;;;;;4976446;28;20054;-59
2022/02/25 05:24:21;;;;;;;4.90;2.80;;;9.00;93.60;;;;;;4975534;28;20050;-59
2022/02/25 05:26:48;;;;;;;5.03;3.08;;;8.90;93.60;;;;;;4976490;28;20053;-59
2022/02/25 05:29:16;;;;;;;5.32;3.30;;;9.00;93.60;;;;;;4976560;28;20101;-59
2022/02/25 05:31:43;;;;;;;4.82;3.00;;;9.00;93.60;;;;;;4976473;28;20043;-59
2022/02/25 05:34:11;;;;;;;5.72;2.88;;;9.00;93.60;;;;;;4975570;28;20043;-58
2022/02/25 05:36:38;;;;;;;6.22;3.88;;;9.00;93.80;;;;;;4976270;28;20070;-59
2022/02/25 05:39:06;;;;;;;5.18;3.00;;;9.00;93.70;;;;;;4975222;28;20050;-58
2022/02/25 05:41:34;;;;;;;5.43;2.80;;;9.10;93.80;;;;;;4976274;28;20035;-59
2022/02/25 05:44:02;;;;;;;3.97;2.38;;;9.20;93.70;;;;;;4976268;28;20121;-58
2022/02/25 05:46:30;;;;;;;4.38;2.60;;;9.30;93.70;;;;;;4976470;28;20051;-59
2022/02/25 05:48:58;;;;;;;3.90;2.78;;;9.40;93.50;;;;;;4975182;28;20181;-59
2022/02/25 05:51:25;;;;;;;4.78;2.30;;;9.60;93.30;;;;;;4976190;28;20053;-59
2022/02/25 05:53:54;;;;;;;4.53;3.15;;;9.80;93.10;;;;;;4974978;28;20035;-60
2022/02/25 05:56:23;;;;;;;4.93;2.08;;;10.00;93.10;;;;;;4975070;28;20046;-60
2022/02/25 05:58:51;;;;;;;6.65;2.00;;;10.20;92.80;;;;;;4971641;28;20050;-59
2022/02/25 06:01:19;;;;;;;2.75;2.10;;;10.40;92.50;;;;;;4970506;28;20035;-60
2022/02/25 06:03:49;;;;;;;6.15;2.40;;;10.60;92.30;;;;;;4972390;28;20061;-60
2022/02/25 06:06:17;;;;;;;4.47;2.78;;;10.80;92.00;;;;;;4974149;28;20209;-60
2022/02/25 06:08:45;;;;;;;4.30;2.40;;;11.10;91.80;;;;;;4972352;28;20054;-59
2022/02/25 06:11:12;;;;;;;5.03;2.90;;;11.20;91.60;;;;;;4972055;28;20045;-59
2022/02/25 06:13:40;;;;;;;5.07;3.20;;;11.40;91.40;;;;;;4973044;28;20042;-59
2022/02/25 06:16:07;;;;;;;6.53;4.82;;;11.50;91.20;;;;;;4968596;28;20097;-60
2022/02/25 06:18:38;;;;;;;5.30;3.40;;;11.70;91.20;;;;;;4966566;28;20070;-60
2022/02/25 06:21:05;;;;;;;6.57;2.47;;;11.90;90.80;;;;;;4973718;28;20139;-59
2022/02/25 06:23:33;;;;;;;5.25;2.30;;;12.20;90.50;;;;;;4972452;28;20505;-60
2022/02/25 06:26:02;;;;;;;5.32;2.10;;;12.50;90.40;;;;;;4955707;28;20047;-61
2022/02/25 06:28:31;;;;;;;5.28;2.10;;;12.70;90.20;;;;;;4956170;28;20043;-60
2022/02/25 06:30:59;;;;;;;12.18;6.07;;;12.90;90.00;;;;;;4972439;28;20046;-60
2022/02/25 06:33:26;;;;;;;13.98;9.35;;;13.20;89.40;;;;;;4972340;28;20084;-60
2022/02/25 06:35:54;;;;;;;6.68;4.97;;;13.40;89.00;;;;;;4971824;28;20553;-59
2022/02/25 06:38:21;;;;;;;4.82;2.63;;;13.60;88.60;;;;;;4974622;28;20043;-58
2022/02/25 06:40:49;;;;;;;4.57;2.22;;;13.90;88.20;;;;;;4975028;28;20047;-59
2022/02/25 06:43:34;;;;;;;2.17;1.50;;;14.10;87.80;;;;;;4975515;28;20109;-59
2022/02/25 06:46:02;;;;;;;3.08;2.15;;;14.50;86.80;;;;;;4974248;28;20476;-59
2022/02/25 06:48:30;;;;;;;5.30;2.33;;;14.80;86.30;;;;;;4975154;28;20397;-59
2022/02/25 06:51:00;;;;;;;5.57;2.15;;;15.30;85.60;;;;;;4973979;28;20054;-59
2022/02/25 06:53:27;;;;;;;5.95;2.08;;;15.80;84.50;;;;;;4975096;28;20053;-59
2022/02/25 06:55:55;;;;;;;6.20;3.33;;;16.30;83.70;;;;;;4974374;28;20536;-59
2022/02/25 06:58:23;;;;;;;7.65;3.05;;;16.80;82.80;;;;;;4973979;28;20126;-59
2022/02/25 07:00:51;;;;;;;6.35;3.20;;;17.30;81.90;;;;;;4973911;28;20042;-59
2022/02/25 07:03:18;;;;;;;3.55;2.03;;;17.50;81.20;;;;;;4973731;28;20528;-59
2022/02/25 07:05:46;;;;;;;5.28;2.00;;;17.60;80.70;;;;;;4973933;28;20058;-58
2022/02/25 07:08:14;;;;;;;5.70;2.53;;;17.60;80.50;;;;;;4975091;28;20402;-58
2022/02/25 07:10:42;;;;;;;4.20;2.17;;;17.50;81.10;;;;;;4973660;28;20058;-58
2022/02/25 07:13:10;;;;;;;9.32;4.47;;;17.40;81.50;;;;;;4975035;28;20464;-58
2022/02/25 07:15:40;;;;;;;11.63;5.75;;;17.20;82.40;;;;;;4973560;28;20042;-59
2022/02/25 07:18:13;;;;;;;20.15;11.50;;;17.00;82.90;;;;;;4973619;28;20101;-59
2022/02/25 07:20:40;;;;;;;24.98;15.20;;;17.00;82.30;;;;;;4975021;28;20494;-58
2022/02/25 07:23:09;;;;;;;24.75;11.75;;;17.00;81.80;;;;;;4973837;28;20050;-58
2022/02/25 07:25:37;;;;;;;18.52;10.77;;;17.10;80.70;;;;;;4941633;28;20061;-59
2022/02/25 07:28:06;;;;;;;14.52;7.93;;;17.10;80.80;;;;;;4973748;28;20111;-58
2022/02/25 07:30:37;;;;;;;10.27;5.43;;;16.90;81.80;;;;;;4941791;28;20058;-59
2022/02/25 07:33:04;;;;;;;5.45;4.30;;;16.60;81.50;;;;;;4958152;28;20043;-58
2022/02/25 07:35:32;;;;;;;6.95;2.80;;;16.10;81.90;;;;;;4974657;28;20069;-59
2022/02/25 07:38:00;;;;;;;3.42;1.70;;;15.50;81.70;;;;;;4957567;28;20507;-59
2022/02/25 07:40:28;;;;;;;3.45;1.95;;;15.10;82.60;;;;;;4973515;28;20134;-59
2022/02/25 07:42:56;;;;;;;4.13;1.48;;;15.00;82.60;;;;;;4973480;28;20078;-59
2022/02/25 07:45:26;;;;;;;3.45;1.70;;;15.00;82.60;;;;;;4957873;28;20062;-59
2022/02/25 07:47:54;;;;;;;3.40;1.65;;;14.90;82.60;;;;;;4974754;28;20039;-59
2022/02/25 07:50:21;;;;;;;5.72;1.73;;;15.10;82.70;;;;;;4957701;28;20389;-59
2022/02/25 07:52:49;;;;;;;4.13;2.15;;;15.30;82.30;;;;;;4974676;28;20039;-58
2022/02/25 07:55:16;;;;;;;4.05;1.60;;;15.30;81.20;;;;;;4974583;28;20421;-59
2022/02/25 07:57:44;;;;;;;7.72;2.47;;;15.40;82.10;;;;;;4974446;28;20489;-59
2022/02/25 08:00:28;;;;;;;3.88;2.38;;;15.50;81.80;;;;;;4975671;28;20145;-59
2022/02/25 08:02:56;;;;;;;4.47;2.03;;;15.50;79.70;;;;;;4973323;28;20509;-58
2022/02/25 08:05:24;;;;;;;3.90;1.90;;;15.70;80.40;;;;;;4973327;28;20129;-59
2022/02/25 08:07:52;;;;;;;4.07;1.63;;;15.70;78.20;;;;;;4975576;28;20051;-58
2022/02/25 08:10:20;;;;;;;3.58;2.03;;;15.70;76.20;;;;;;4944948;28;20057;-59
2022/02/25 08:12:48;;;;;;;3.90;2.22;;;15.80;76.70;;;;;;4976841;28;20055;-58
2022/02/25 08:15:15;;;;;;;4.00;1.80;;;15.90;75.60;;;;;;4976689;28;20062;-58
2022/02/25 08:17:44;;;;;;;4.03;1.90;;;16.00;74.70;;;;;;4976953;28;20054;-58
2022/02/25 08:20:12;;;;;;;3.47;2.25;;;16.20;73.70;;;;;;4976808;28;20047;-58
2022/02/25 08:22:40;;;;;;;2.53;1.50;;;16.40;71.90;;;;;;4976762;28;20035;-58
2022/02/25 08:25:09;;;;;;;4.25;1.20;;;16.60;71.60;;;;;;4976839;28;20042;-59
2022/02/25 08:27:36;;;;;;;3.25;1.58;;;16.70;72.10;;;;;;4977877;28;20078;-58
2022/02/25 08:30:07;;;;;;;3.45;2.00;;;16.90;71.40;;;;;;4960880;28;20062;-59
2022/02/25 08:32:35;;;;;;;4.50;1.27;;;17.10;70.30;;;;;;4976394;28;20404;-58
2022/02/25 08:35:03;;;;;;;7.55;1.40;;;17.20;69.50;;;;;;4976471;28;20042;-59
2022/02/25 08:37:30;;;;;;;3.78;1.30;;;17.30;68.70;;;;;;4976235;28;20556;-58
2022/02/25 08:39:58;;;;;;;7.55;2.05;;;17.40;68.60;;;;;;4976531;28;20067;-59
2022/02/25 08:42:25;;;;;;;3.15;1.30;;;17.50;68.20;;;;;;4977628;28;20402;-59
2022/02/25 08:44:53;;;;;;;3.72;1.50;;;17.60;67.30;;;;;;4976360;28;20043;-59
2022/02/25 08:47:21;;;;;;;4.82;1.85;;;17.60;65.50;;;;;;4976263;28;20498;-59
2022/02/25 08:49:49;;;;;;;1.90;1.45;;;17.60;64.90;;;;;;4944567;28;20053;-59
2022/02/25 08:52:17;;;;;;;3.05;1.73;;;17.50;63.80;;;;;;4976149;28;20039;-59
2022/02/25 08:54:44;;;;;;;6.30;1.83;;;17.40;64.30;;;;;;4976288;28;20093;-59
2022/02/25 08:57:12;;;;;;;4.00;1.50;;;17.40;64.50;;;;;;4976113;28;20087;-59
2022/02/25 08:59:42;;;;;;;3.88;1.77;;;17.40;66.50;;;;;;4977218;28;20390;-59
2022/02/25 09:02:10;;;;;;;3.70;1.88;;;17.30;64.10;;;;;;4960162;28;20050;-59
2022/02/25 09:04:38;;;;;;;2.15;1.48;;;17.40;65.00;;;;;;4977046;28;20394;-59
2022/02/25 09:07:10;;;;;;;2.10;1.27;;;17.30;60.40;;;;;;4976214;28;20043;-58
2022/02/25 09:09:53;;;;;;;3.10;1.60;;;17.30;59.60;;;;;;4976939;28;20125;-59
2022/02/25 09:12:21;;;;;;;2.92;1.50;;;17.20;62.70;;;;;;4975800;28;20054;-59
2022/02/25 09:14:48;;;;;;;3.90;1.48;;;17.10;63.50;;;;;;4976732;28;20066;-59
2022/02/25 09:17:16;;;;;;;4.05;1.35;;;17.20;62.60;;;;;;4976766;28;20050;-59
2022/02/25 09:19:45;;;;;;;1.85;1.45;;;17.30;61.90;;;;;;4959101;28;20046;-59
2022/02/25 09:22:14;;;;;;;3.05;1.40;;;17.50;62.10;;;;;;4975902;28;20502;-58
2022/02/25 09:24:41;;;;;;;2.47;1.52;;;17.60;63.10;;;;;;4976789;28;20485;-58
2022/02/25 09:27:10;;;;;;;3.28;1.58;;;17.70;63.30;;;;;;4975659;28;20050;-58
2022/02/25 09:29:38;;;;;;;5.20;1.30;;;17.60;62.80;;;;;;4976602;28;20138;-58
2022/02/25 09:32:07;;;;;;;3.63;1.48;;;17.80;62.80;;;;;;4976688;28;20051;-59
2022/02/25 09:34:35;;;;;;;1.85;1.17;;;17.80;60.90;;;;;;4976704;28;20042;-59
2022/02/25 09:37:05;;;;;;;2.92;1.40;;;17.70;62.20;;;;;;4975248;28;20039;-59
2022/02/25 09:39:33;;;;;;;2.30;1.67;;;17.70;62.20;;;;;;4975416;28;20038;-59
2022/02/25 09:42:01;;;;;;;3.63;1.65;;;17.70;62.40;;;;;;4975286;28;20042;-59
2022/02/25 09:44:31;;;;;;;3.45;2.20;;;18.00;63.00;;;;;;4959730;28;20039;-59
2022/02/25 09:46:59;;;;;;;2.22;1.27;;;18.10;62.00;;;;;;4976287;28;20046;-59
2022/02/25 09:49:27;;;;;;;3.55;1.48;;;17.90;61.80;;;;;;4975138;28;20059;-59
2022/02/25 09:51:56;;;;;;;3.30;1.95;;;17.90;61.70;;;;;;4970577;28;20055;-58
2022/02/25 09:54:24;;;;;;;2.28;1.30;;;17.70;61.40;;;;;;4973794;28;20046;-59
2022/02/25 09:56:56;;;;;;;1.77;1.15;;;17.80;61.40;;;;;;4970680;28;20043;-59
2022/02/25 09:59:24;;;;;;;4.22;2.22;;;17.90;61.90;;;;;;4970867;28;20082;-59
2022/02/25 10:01:51;;;;;;;2.90;1.40;;;18.10;62.00;;;;;;4939834;29;20069;-58
2022/02/25 10:04:22;;;;;;;3.75;1.48;;;18.30;65.10;;;;;;4956587;29;20069;-59
2022/02/25 10:06:50;;;;;;;4.63;1.65;;;18.20;61.20;;;;;;4955582;29;20110;-59
2022/02/25 10:09:35;;;;;;;8.60;2.20;;;17.70;60.80;;;;;;4956669;28;20039;-59
2022/02/25 10:12:09;;;;;;;8.75;2.65;;;17.60;60.90;;;;;;4955613;29;20122;-59
2022/02/25 10:14:40;;;;;;;4.18;2.25;;;17.40;61.10;;;;;;4955606;29;20138;-59
2022/02/25 10:17:29;;;;;;;4.05;1.55;;;17.30;60.80;;;;;;4955307;29;20051;-59
2022/02/25 10:20:00;;;;;;;5.00;1.70;;;17.50;61.50;;;;;;4955228;29;20055;-59
2022/02/25 10:22:39;;;;;;;3.67;1.77;;;17.50;60.20;;;;;;4956007;28;20102;-59
2022/02/25 10:25:08;;;;;;;3.03;1.80;;;17.60;60.80;;;;;;4955354;29;20458;-59
2022/02/25 10:27:45;;;;;;;4.53;2.10;;;17.80;61.10;;;;;;4955184;28;20488;-59
2022/02/25 10:30:14;;;;;;;;;;;18.00;60.50;;;;;;4939054;29;20594;-58
2022/02/25 10:32:42;;;;;;;3.85;1.70;;;18.00;61.10;;;;;;4956251;28;19929;-58
2022/02/25 10:35:38;;;;;;;2.97;1.80;;;17.70;62.20;;;;;;4956320;29;20050;-58
2022/02/25 10:38:19;;;;;;;3.53;1.73;;;17.60;62.10;;;;;;4953778;29;20138;-58
2022/02/25 10:40:48;;;;;;;2.10;1.23;;;17.30;61.80;;;;;;4954948;29;20130;-59
2022/02/25 10:43:17;;;;;;;4.03;1.83;;;17.30;62.50;;;;;;4954884;29;20506;-58
2022/02/25 10:45:47;;;;;;;4.10;1.70;;;17.40;62.80;;;;;;4954954;28;20046;-59
2022/02/25 10:48:19;;;;;;;5.55;2.45;;;17.60;64.40;;;;;;4954795;29;20047;-58
2022/02/25 10:50:49;;;;;;;5.50;1.90;;;17.50;61.60;;;;;;4939115;29;20043;-59
2022/02/25 10:53:18;;;;;;;3.40;1.48;;;17.50;61.60;;;;;;4954883;29;20055;-58
2022/02/25 10:55:49;;;;;;;4.25;2.08;;;17.50;62.40;;;;;;4954710;28;20483;-59
2022/02/25 10:58:18;;;;;;;4.10;2.00;;;17.60;62.40;;;;;;4954839;28;20059;-59
2022/02/25 11:01:00;;;;;;;3.55;1.83;;;17.70;64.50;;;;;;4923856;29;20043;-58
2022/02/25 11:03:28;;;;;;;2.97;1.40;;;17.90;64.50;;;;;;4954900;29;20071;-59
2022/02/25 11:05:57;;;;;;;3.55;1.90;;;18.00;64.80;;;;;;4954709;29;20047;-59
2022/02/25 11:08:25;;;;;;;7.45;2.05;;;18.10;64.40;;;;;;4955619;28;20053;-59
2022/02/25 11:10:55;;;;;;;3.35;1.80;;;18.30;64.60;;;;;;4955767;28;20113;-59
2022/02/25 11:13:23;;;;;;;3.47;2.20;;;18.40;64.70;;;;;;4954386;29;20091;-60
2022/02/25 11:15:52;;;;;;;3.70;1.73;;;18.50;64.40;;;;;;4954606;29;20055;-59
2022/02/25 11:18:22;;;;;;;6.10;1.90;;;18.60;64.30;;;;;;4954641;28;20079;-59
2022/02/25 11:20:51;;;;;;;4.57;1.88;;;18.60;64.40;;;;;;4954399;29;20494;-59
2022/02/25 11:23:23;;;;;;;5.15;2.33;;;18.60;63.20;;;;;;4954541;29;20039;-59
2022/02/25 11:25:51;;;;;;;8.85;2.63;;;18.30;62.90;;;;;;4954540;29;20059;-59
2022/02/25 11:28:22;;;;;;;11.00;7.07;;;18.20;63.20;;;;;;4955504;28;20141;-59
2022/02/25 11:31:19;;;;;;;10.02;5.43;;;17.50;63.00;;;;;;4955671;29;20071;-59
2022/02/25 11:33:55;;;;;;;9.15;5.20;;;17.40;64.80;;;;;;4954494;29;20043;-59
2022/02/25 11:36:45;;;;;;;12.48;4.57;;;17.50;65.10;;;;;;4938440;29;20051;-60
2022/02/25 11:39:24;;;;;;;10.63;3.67;;;17.50;64.80;;;;;;4955462;28;20071;-58
2022/02/25 11:41:57;;;;;;;4.57;2.35;;;17.70;65.80;;;;;;4954949;28;20058;-59
2022/02/25 11:44:35;;;;;;;4.63;2.00;;;17.50;64.40;;;;;;4958145;29;20062;-59
2022/02/25 11:47:03;;;;;;;2.65;1.63;;;17.50;64.40;;;;;;4942451;29;20048;-59
2022/02/25 11:49:38;;;;;;;3.65;2.30;;;17.30;66.90;;;;;;4958053;29;20491;-58
2022/02/25 11:52:08;;;;;;;4.40;1.85;;;17.30;66.60;;;;;;4958085;29;20126;-59
2022/02/25 11:54:45;;;;;;;6.53;1.88;;;17.40;66.00;;;;;;4957960;29;20044;-59
2022/02/25 11:57:14;;;;;;;3.65;1.70;;;17.50;66.70;;;;;;4959016;29;20386;-59
2022/02/25 11:59:41;;;;;;;4.00;1.70;;;17.60;66.50;;;;;;4942198;29;20070;-59
2022/02/25 12:02:19;;;;;;;3.15;1.75;;;17.80;66.00;;;;;;4958086;29;20516;-59
2022/02/25 12:04:53;;;;;;;3.33;1.95;;;18.00;64.90;;;;;;4957754;29;20083;-59
2022/02/25 12:07:38;;;;;;;2.15;1.52;;;18.10;64.50;;;;;;4957926;29;20077;-59
2022/02/25 12:10:11;;;;;;;3.17;1.33;;;18.10;64.40;;;;;;4957760;29;20039;-60
2022/02/25 12:12:43;;;;;;;5.00;2.15;;;18.20;64.60;;;;;;4957512;29;20176;-59
2022/02/25 12:15:24;;;;;;;3.83;1.80;;;18.30;64.80;;;;;;4957623;29;20050;-59
2022/02/25 12:18:02;;;;;;;2.40;1.52;;;18.20;65.60;;;;;;4941995;29;20509;-59
2022/02/25 12:20:49;;;;;;;6.15;2.22;;;18.30;65.30;;;;;;4958907;28;20039;-59
2022/02/25 12:23:22;;;;;;;3.13;1.87;;;18.30;65.50;;;;;;4958581;29;20130;-59
2022/02/25 12:26:04;;;;;;;2.90;1.98;;;18.00;65.30;;;;;;4941428;29;20044;-59
2022/02/25 12:28:34;;;;;;;4.30;2.03;;;17.70;65.30;;;;;;4957338;28;20102;-60
2022/02/25 12:31:18;;;;;;;2.75;1.98;;;17.40;65.80;;;;;;4957284;29;20059;-59
2022/02/25 12:33:45;;;;;;;4.88;1.98;;;17.40;66.10;;;;;;4957333;29;20123;-59
2022/02/25 12:36:21;;;;;;;3.03;1.50;;;17.30;66.00;;;;;;4940965;29;20047;-59
2022/02/25 12:38:50;;;;;;;3.30;1.85;;;17.20;66.20;;;;;;4958192;28;20454;-59
2022/02/25 12:41:24;;;;;;;5.07;1.88;;;17.30;67.20;;;;;;4941432;29;20046;-59
2022/02/25 12:44:00;;;;;;;4.25;2.38;;;17.20;66.20;;;;;;4957225;28;20059;-59
2022/02/25 12:46:30;;;;;;;4.50;2.22;;;17.10;65.40;;;;;;4956988;29;20035;-59
2022/02/25 12:49:00;;;;;;;3.15;1.65;;;17.20;65.10;;;;;;4941022;29;20055;-58
2022/02/25 12:51:27;;;;;;;4.13;2.55;;;17.20;65.60;;;;;;4958182;29;20485;-59
2022/02/25 12:54:05;;;;;;;5.82;2.08;;;17.30;65.90;;;;;;4955827;28;20364;-58
2022/02/25 12:56:37;;;;;;;7.68;2.63;;;17.40;65.70;;;;;;4957934;28;20059;-59
2022/02/25 12:59:10;;;;;;;4.78;1.85;;;17.50;65.80;;;;;;4956671;29;20094;-58
2022/02/25 13:01:47;;;;;;;3.75;2.10;;;17.40;66.10;;;;;;4957632;28;20051;-58
2022/02/25 13:04:24;;;;;;;5.00;2.30;;;17.30;66.30;;;;;;4957117;29;20040;-59
2022/02/25 13:06:57;;;;;;;3.40;2.00;;;17.10;66.30;;;;;;4957924;28;20099;-59
2022/02/25 13:09:27;;;;;;;8.77;4.70;;;16.90;65.70;;;;;;4956680;29;20390;-60
2022/02/25 13:11:58;;;;;;;5.75;2.75;;;16.80;66.20;;;;;;4956502;29;20474;-59